www.bettendroffer.lu
Wetterdaten: Woche 07.02.11 - 13.02.11 (KW6)
Datum Zeit Temp. 1 ext. Temp. 3 Feuchte 1 Feuchte 3 Luftdruck Regen Wind Richtung Taupunkt Windchill
07.02.2011 00:00 5,1 C 4,9 C 35 % 50 % 1020 hPa 0,0 l/m 0,0 km/h (0 Bft) N -9,1 C 5,1 C
07.02.2011 01:00 5,0 C 4,8 C 36 % 50 % 1020 hPa 0,0 l/m 0,0 km/h (0 Bft) N -9,0 C 5,0 C
07.02.2011 02:00 4,9 C 4,8 C 36 % 50 % 1020 hPa 0,0 l/m 0,0 km/h (0 Bft) N -8,9 C 4,9 C
07.02.2011 03:00 4,9 C 4,8 C 37 % 51 % 1019 hPa 0,0 l/m 0,0 km/h (0 Bft) N -8,5 C 4,9 C
07.02.2011 04:00 4,8 C 4,7 C 38 % 51 % 1018 hPa 0,0 l/m 0,0 km/h (0 Bft) N -8,3 C 4,8 C
07.02.2011 05:00 4,4 C 4,4 C 38 % 52 % 1018 hPa 0,0 l/m 0,0 km/h (0 Bft) N -8,6 C 4,4 C
07.02.2011 06:00 4,0 C 3,9 C 39 % 52 % 1018 hPa 0,0 l/m 0,0 km/h (0 Bft) N -8,7 C 4,0 C
07.02.2011 07:00 3,8 C 3,7 C 41 % 54 % 1018 hPa 0,0 l/m 0,0 km/h (0 Bft) N -8,2 C 3,8 C
07.02.2011 08:00 3,8 C 3,7 C 43 % 56 % 1018 hPa 0,0 l/m 0,0 km/h (0 Bft) N -7,8 C 3,8 C
07.02.2011 09:00 4,4 C 4,3 C 43 % 55 % 1017 hPa 0,0 l/m 0,0 km/h (0 Bft) N -7,2 C 4,4 C
07.02.2011 10:00 5,3 C 7,1 C 41 % 48 % 1017 hPa 0,0 l/m 0,0 km/h (0 Bft) N -7,1 C 5,3 C
07.02.2011 11:00 6,3 C 12,1 C 34 % 27 % 1017 hPa 0,0 l/m 0,0 km/h (0 Bft) N -8,4 C 6,3 C
07.02.2011 12:00 8,6 C 13,4 C 23 % 23 % 1016 hPa 0,0 l/m 0,0 km/h (0 Bft) N -11,7 C 8,6 C
07.02.2011 13:00 13,1 C 17,8 C 20 % 20 % 1014 hPa 0,0 l/m 0,0 km/h (0 Bft) N -9,3 C 13,1 C
07.02.2011 14:00 16,8 C 21,6 C 20 % 20 % 1014 hPa 0,0 l/m 0,0 km/h (0 Bft) N -6,3 C 16,8 C
07.02.2011 15:00 16,5 C 20,0 C 20 % 20 % 1013 hPa 0,0 l/m 0,0 km/h (0 Bft) N -6,5 C 16,5 C
07.02.2011 16:00 14,6 C 13,3 C 20 % 20 % 1012 hPa 0,0 l/m 0,0 km/h (0 Bft) N -8,1 C 14,6 C
07.02.2011 17:00 11,9 C 12,1 C 20 % 20 % 1012 hPa 0,0 l/m 0,0 km/h (0 Bft) N -10,4 C 11,9 C
07.02.2011 18:00 9,1 C 10,4 C 20 % 25 % 1012 hPa 0,0 l/m 0,4 km/h (0 Bft) N -12,6 C 9,1 C
07.02.2011 19:00 8,2 C 8,5 C 20 % 23 % 1012 hPa 0,0 l/m 0,0 km/h (0 Bft) N -13,4 C 8,2 C
07.02.2011 20:00 7,3 C 7,7 C 20 % 22 % 1013 hPa 0,0 l/m 0,0 km/h (0 Bft) N -14,1 C 7,3 C
07.02.2011 21:00 6,1 C 6,9 C 20 % 20 % 1013 hPa 0,0 l/m 0,0 km/h (0 Bft) N -15,1 C 6,1 C
07.02.2011 22:00 6,0 C 0,4 C 20 % 67 % 1013 hPa 0,0 l/m 0,0 km/h (0 Bft) N -15,2 C 6,0 C
07.02.2011 23:00 7,2 C 7,0 C 20 % 33 % 1013 hPa 0,0 l/m 0,0 km/h (0 Bft) N -14,3 C 7,2 C
08.02.2011 00:00 8,7 C 8,2 C 20 % 34 % 1013 hPa 0,0 l/m 0,0 km/h (0 Bft) N -13,0 C 8,7 C
08.02.2011 01:00 8,4 C 8,3 C 20 % 37 % 1013 hPa 0,0 l/m 0,0 km/h (0 Bft) N -13,2 C 8,4 C
08.02.2011 02:00 8,4 C 8,1 C 25 % 41 % 1013 hPa 0,0 l/m 0,0 km/h (0 Bft) N -10,5 C 8,4 C
08.02.2011 03:00 6,5 C 6,6 C 47 % 54 % 1014 hPa 1,1 l/m 0,0 km/h (0 Bft) N -4,0 C 6,5 C
08.02.2011 04:00 6,3 C 6,3 C 59 % 61 % 1014 hPa 0,4 l/m 0,0 km/h (0 Bft) N -1,1 C 6,3 C
08.02.2011 05:00 6,4 C 6,3 C 69 % 65 % 1014 hPa 0,0 l/m 0,0 km/h (0 Bft) N 1,1 C 6,4 C
08.02.2011 06:00 6,4 C 6,3 C 72 % 66 % 1015 hPa 0,0 l/m 0,0 km/h (0 Bft) N 1,7 C 6,4 C
08.02.2011 07:00 6,1 C 5,9 C 73 % 67 % 1015 hPa 0,0 l/m 0,0 km/h (0 Bft) N 1,5 C 6,1 C
08.02.2011 08:00 5,5 C 5,3 C 71 % 67 % 1016 hPa 0,0 l/m 0,0 km/h (0 Bft) N 0,6 C 5,5 C
08.02.2011 09:00 4,3 C 4,4 C 69 % 68 % 1016 hPa 0,0 l/m 0,0 km/h (0 Bft) N -0,9 C 4,3 C
08.02.2011 10:00 5,7 C 7,9 C 72 % 66 % 1017 hPa 0,0 l/m 0,0 km/h (0 Bft) N 1,1 C 5,7 C
08.02.2011 11:00 7,9 C 10,9 C 69 % 49 % 1018 hPa 0,0 l/m 0,0 km/h (0 Bft) N 2,6 C 7,9 C
08.02.2011 12:00 9,4 C 12,9 C 41 % 36 % 1018 hPa 0,0 l/m 0,0 km/h (0 Bft) N -3,7 C 9,4 C
08.02.2011 13:00 14,9 C 19,5 C 20 % 20 % 1018 hPa 0,0 l/m 0,0 km/h (0 Bft) N -7,8 C 14,9 C
08.02.2011 14:00 15,2 C 19,5 C 20 % 20 % 1017 hPa 0,0 l/m 0,0 km/h (0 Bft) N -7,6 C 15,2 C
08.02.2011 15:00 13,0 C 18,4 C 20 % 20 % 1017 hPa 0,0 l/m 0,0 km/h (0 Bft) N -9,4 C 13,0 C
08.02.2011 16:00 12,0 C 17,2 C 20 % 20 % 1017 hPa 0,0 l/m 0,0 km/h (0 Bft) N -10,2 C 12,0 C
08.02.2011 17:00 9,2 C 8,3 C 20 % 32 % 1017 hPa 0,0 l/m 0,0 km/h (0 Bft) N -12,6 C 9,2 C
08.02.2011 18:00 4,8 C 4,4 C 27 % 41 % 1017 hPa 0,0 l/m 0,0 km/h (0 Bft) N -12,9 C 4,8 C
08.02.2011 19:00 2,8 C 2,3 C 35 % 49 % 1018 hPa 0,0 l/m 0,0 km/h (0 Bft) N -11,4 C 2,8 C
08.02.2011 20:00 1,3 C 0,8 C 41 % 55 % 1018 hPa 0,0 l/m 0,0 km/h (0 Bft) N -10,6 C 1,3 C
08.02.2011 21:00 0,2 C -0,2 C 44 % 58 % 1018 hPa 0,0 l/m 0,0 km/h (0 Bft) N -10,6 C 0,2 C
08.02.2011 22:00 -0,8 C -1,2 C 47 % 61 % 1018 hPa 0,0 l/m 0,0 km/h (0 Bft) N -10,6 C -0,8 C
08.02.2011 23:00 -1,3 C -1,9 C 50 % 63 % 1018 hPa 0,0 l/m 0,0 km/h (0 Bft) N -10,4 C -1,3 C
09.02.2011 00:00 -1,8 C -2,2 C 52 % 64 % 1018 hPa 0,0 l/m 0,0 km/h (0 Bft) N -10,4 C -1,8 C
09.02.2011 01:00 -2,3 C -2,7 C 53 % 65 % 1018 hPa 0,0 l/m 0,0 km/h (0 Bft) N -10,5 C -2,3 C
09.02.2011 02:00 -1,5 C -2,7 C 56 % 65 % 1017 hPa 0,0 l/m 0,0 km/h (0 Bft) N -9,1 C -1,5 C
09.02.2011 03:00 -1,9 C -2,7 C 57 % 65 % 1017 hPa 0,0 l/m 0,0 km/h (0 Bft) N -9,3 C -1,9 C
09.02.2011 04:00 -2,3 C -2,7 C 60 % 74 % 1017 hPa 0,0 l/m 0,0 km/h (0 Bft) N -9,1 C -2,3 C
09.02.2011 05:00 -2,8 C -2,8 C 61 % 75 % 1017 hPa 0,0 l/m 0,0 km/h (0 Bft) N -9,2 C -2,8 C
09.02.2011 06:00 -3,1 C -3,3 C 63 % 76 % 1017 hPa 0,0 l/m 0,0 km/h (0 Bft) N -9,2 C -3,1 C
09.02.2011 07:00 -3,8 C -4,2 C 63 % 75 % 1017 hPa 0,0 l/m 0,0 km/h (0 Bft) N -9,8 C -3,8 C
09.02.2011 08:00 -4,5 C -4,9 C 64 % 75 % 1017 hPa 0,0 l/m 0,0 km/h (0 Bft) N -10,4 C -4,5 C
09.02.2011 09:00 -4,1 C -0,9 C 66 % 79 % 1018 hPa 0,0 l/m 0,0 km/h (0 Bft) N -9,5 C -4,1 C
09.02.2011 10:00 -2,3 C 10,4 C 69 % 30 % 1017 hPa 0,0 l/m 0,0 km/h (0 Bft) N -7,2 C -2,3 C
09.02.2011 11:00 0,8 C 7,4 C 69 % 31 % 1017 hPa 0,0 l/m 0,0 km/h (0 Bft) N -4,2 C 0,8 C
09.02.2011 12:00 4,7 C 10,8 C 50 % 25 % 1017 hPa 0,0 l/m 0,0 km/h (0 Bft) N -5,0 C 4,7 C
09.02.2011 13:00 12,4 C 16,6 C 23 % 20 % 1016 hPa 0,0 l/m 0,0 km/h (0 Bft) N -8,5 C 12,4 C
09.02.2011 14:00 15,3 C 20,2 C 20 % 20 % 1016 hPa 0,0 l/m 0,0 km/h (0 Bft) N -7,5 C 15,3 C
09.02.2011 15:00 16,6 C 19,7 C 20 % 20 % 1015 hPa 0,0 l/m 0,0 km/h (0 Bft) N -6,4 C 16,6 C
09.02.2011 16:00 10,8 C 9,9 C 20 % 33 % 1015 hPa 0,0 l/m 0,0 km/h (0 Bft) N -11,3 C 10,8 C
09.02.2011 17:00 5,9 C 6,1 C 38 % 47 % 1015 hPa 0,0 l/m 0,0 km/h (0 Bft) N -7,4 C 5,9 C
09.02.2011 18:00 3,8 C 3,6 C 53 % 61 % 1015 hPa 0,0 l/m 0,0 km/h (0 Bft) N -5,0 C 3,8 C
09.02.2011 19:00 3,5 C 3,5 C 62 % 67 % 1016 hPa 0,0 l/m 0,0 km/h (0 Bft) N -3,1 C 3,5 C
09.02.2011 20:00 3,6 C 3,5 C 63 % 67 % 1016 hPa 0,0 l/m 0,0 km/h (0 Bft) N -2,8 C 3,6 C
09.02.2011 21:00 3,8 C 3,7 C 64 % 69 % 1016 hPa 0,0 l/m 0,0 km/h (0 Bft) N -2,5 C 3,8 C
09.02.2011 22:00 3,7 C 3,7 C 71 % 70 % 1016 hPa 0,0 l/m 0,0 km/h (0 Bft) N -1,2 C 3,7 C
09.02.2011 23:00 3,4 C 3,4 C 76 % 72 % 1016 hPa 0,0 l/m 0,0 km/h (0 Bft) N -0,5 C 3,4 C
10.02.2011 00:00 3,3 C 3,3 C 79 % 74 % 1016 hPa 0,0 l/m 0,0 km/h (0 Bft) N -0,1 C 3,3 C
10.02.2011 01:00 3,3 C 3,3 C 81 % 74 % 1015 hPa 0,0 l/m 0,0 km/h (0 Bft) N 0,3 C 3,3 C
10.02.2011 02:00 3,5 C 3,4 C 79 % 75 % 1015 hPa 0,0 l/m 0,0 km/h (0 Bft) N 0,2 C 3,5 C
10.02.2011 03:00 3,4 C 3,3 C 74 % 74 % 1015 hPa 0,0 l/m 0,0 km/h (0 Bft) N -0,8 C 3,4 C
10.02.2011 04:00 3,0 C 2,9 C 69 % 73 % 1015 hPa 0,0 l/m 0,0 km/h (0 Bft) N -2,2 C 3,0 C
10.02.2011 05:00 2,3 C 2,3 C 71 % 73 % 1015 hPa 0,0 l/m 0,0 km/h (0 Bft) N -2,5 C 2,3 C
10.02.2011 06:00 1,4 C 1,3 C 74 % 74 % 1014 hPa 0,0 l/m 0,0 km/h (0 Bft) N -2,8 C 1,4 C
10.02.2011 07:00 0,9 C 0,8 C 78 % 76 % 1014 hPa 0,0 l/m 0,0 km/h (0 Bft) N -2,5 C 0,9 C
10.02.2011 08:00 1,0 C 0,9 C 82 % 77 % 1015 hPa 0,0 l/m 0,0 km/h (0 Bft) N -1,8 C 1,0 C
10.02.2011 09:00 1,3 C 1,2 C 81 % 78 % 1015 hPa 0,0 l/m 0,0 km/h (0 Bft) N -1,7 C 1,3 C
10.02.2011 10:00 1,9 C 1,9 C 70 % 75 % 1015 hPa 0,0 l/m 0,0 km/h (0 Bft) N -3,1 C 1,9 C
10.02.2011 11:00 3,3 C 3,8 C 53 % 65 % 1015 hPa 0,0 l/m 0,0 km/h (0 Bft) N -5,4 C 3,3 C
10.02.2011 12:00 5,6 C 8,1 C 37 % 41 % 1014 hPa 0,0 l/m 0,0 km/h (0 Bft) N -8,2 C 5,6 C
10.02.2011 13:00 7,1 C 7,8 C 32 % 40 % 1013 hPa 0,0 l/m 0,0 km/h (0 Bft) N -8,5 C 7,1 C
10.02.2011 14:00 7,1 C 7,3 C 38 % 48 % 1013 hPa 0,0 l/m 0,0 km/h (0 Bft) N -6,4 C 7,1 C
10.02.2011 15:00 7,8 C 8,1 C 41 % 50 % 1013 hPa 0,0 l/m 0,0 km/h (0 Bft) N -4,7 C 7,8 C
10.02.2011 16:00 7,9 C 7,9 C 44 % 53 % 1012 hPa 0,0 l/m 0,0 km/h (0 Bft) N -3,6 C 7,9 C
10.02.2011 17:00 7,1 C 7,4 C 51 % 57 % 1012 hPa 0,4 l/m 0,0 km/h (0 Bft) N -2,4 C 7,1 C
10.02.2011 18:00 7,3 C 7,5 C 55 % 60 % 1012 hPa 0,0 l/m 0,0 km/h (0 Bft) N -1,2 C 7,3 C
10.02.2011 19:00 7,4 C 7,4 C 66 % 66 % 1011 hPa 0,4 l/m 0,0 km/h (0 Bft) N 1,3 C 7,4 C
10.02.2011 20:00 7,5 C 7,6 C 74 % 69 % 1011 hPa 0,4 l/m 0,0 km/h (0 Bft) N 3,1 C 7,5 C
10.02.2011 21:00 7,6 C 7,8 C 75 % 70 % 1011 hPa 0,0 l/m 0,0 km/h (0 Bft) N 3,4 C 7,6 C
10.02.2011 22:00 7,6 C 7,9 C 74 % 70 % 1010 hPa 0,4 l/m 0,0 km/h (0 Bft) N 3,3 C 7,6 C
10.02.2011 23:00 7,6 C 7,6 C 75 % 70 % 1010 hPa 0,0 l/m 0,0 km/h (0 Bft) N 3,3 C 7,6 C
11.02.2011 00:00 7,6 C 7,6 C 76 % 71 % 1010 hPa 0,4 l/m 0,0 km/h (0 Bft) N 3,6 C 7,6 C
11.02.2011 01:00 7,5 C 7,5 C 77 % 72 % 1010 hPa 0,0 l/m 0,0 km/h (0 Bft) N 3,6 C 7,5 C
11.02.2011 02:00 7,6 C 7,8 C 78 % 73 % 1009 hPa 0,4 l/m 0,0 km/h (0 Bft) N 4,0 C 7,6 C
11.02.2011 03:00 7,9 C 7,9 C 75 % 73 % 1008 hPa 0,0 l/m 0,0 km/h (0 Bft) N 3,7 C 7,9 C
11.02.2011 04:00 8,4 C 8,3 C 66 % 71 % 1008 hPa 0,0 l/m 0,0 km/h (0 Bft) N 2,3 C 8,4 C
11.02.2011 05:00 8,4 C 8,4 C 55 % 67 % 1008 hPa 0,0 l/m 0,0 km/h (0 Bft) N -0,2 C 8,4 C
11.02.2011 06:00 8,9 C 8,8 C 48 % 64 % 1008 hPa 0,0 l/m 0,0 km/h (0 Bft) N -1,6 C 8,9 C
11.02.2011 07:00 9,1 C 8,9 C 46 % 62 % 1008 hPa 0,0 l/m 0,0 km/h (0 Bft) N -1,9 C 9,1 C
11.02.2011 08:00 8,5 C 8,5 C 54 % 63 % 1008 hPa 0,4 l/m 0,0 km/h (0 Bft) N -0,5 C 8,5 C
11.02.2011 09:00 8,7 C 8,7 C 63 % 68 % 1008 hPa 0,0 l/m 0,0 km/h (0 Bft) N 1,9 C 8,7 C
11.02.2011 10:00 9,6 C 9,6 C 54 % 65 % 1009 hPa 0,0 l/m 0,0 km/h (0 Bft) N 0,7 C 9,6 C
11.02.2011 11:00 10,0 C 10,0 C 50 % 62 % 1009 hPa 0,0 l/m 0,0 km/h (0 Bft) N -0,1 C 10,0 C
11.02.2011 12:00 9,6 C 9,9 C 58 % 65 % 1009 hPa 0,7 l/m 0,0 km/h (0 Bft) N 1,7 C 9,6 C
11.02.2011 13:00 9,6 C 9,7 C 64 % 68 % 1009 hPa 0,7 l/m 0,0 km/h (0 Bft) N 3,1 C 9,6 C
11.02.2011 14:00 9,7 C 9,8 C 65 % 69 % 1009 hPa 0,0 l/m 0,0 km/h (0 Bft) N 3,4 C 9,7 C
11.02.2011 15:00 10,0 C 9,8 C 62 % 70 % 1009 hPa 0,0 l/m 0,0 km/h (0 Bft) N 3,1 C 10,0 C
11.02.2011 16:00 10,5 C 10,0 C 56 % 69 % 1009 hPa 0,0 l/m 0,0 km/h (0 Bft) N 2,1 C 10,5 C
11.02.2011 17:00 10,8 C 10,6 C 48 % 65 % 1009 hPa 0,0 l/m 0,0 km/h (0 Bft) N 0,1 C 10,8 C
11.02.2011 18:00 9,4 C 9,3 C 50 % 63 % 1009 hPa 0,0 l/m 0,0 km/h (0 Bft) N -0,7 C 9,4 C
11.02.2011 19:00 8,1 C 8,1 C 59 % 69 % 1010 hPa 0,0 l/m 0,0 km/h (0 Bft) N 0,6 C 8,1 C
11.02.2011 20:00 8,1 C 7,9 C 63 % 71 % 1009 hPa 0,0 l/m 0,0 km/h (0 Bft) N 1,5 C 8,1 C
11.02.2011 21:00 7,8 C 7,7 C 66 % 71 % 1009 hPa 0,0 l/m 0,0 km/h (0 Bft) N 1,8 C 7,8 C
11.02.2011 22:00 7,1 C 6,9 C 68 % 72 % 1009 hPa 0,0 l/m 0,0 km/h (0 Bft) N 1,5 C 7,1 C
11.02.2011 23:00 6,2 C 6,1 C 71 % 73 % 1009 hPa 0,0 l/m 0,0 km/h (0 Bft) N 1,3 C 6,2 C
12.02.2011 00:00 4,3 C 4,0 C 72 % 73 % 1009 hPa 0,0 l/m 0,0 km/h (0 Bft) N -0,2 C 4,3 C
12.02.2011 01:00 2,9 C 2,6 C 74 % 75 % 1009 hPa 0,0 l/m 0,0 km/h (0 Bft) N -1,2 C 2,9 C
12.02.2011 02:00 2,2 C 1,8 C 76 % 77 % 1009 hPa 0,0 l/m 0,0 km/h (0 Bft) N -1,6 C 2,2 C
12.02.2011 03:00 1,7 C 1,3 C 79 % 78 % 1009 hPa 0,0 l/m 0,0 km/h (0 Bft) N -1,7 C 1,7 C
12.02.2011 04:00 2,1 C 1,8 C 81 % 80 % 1009 hPa 0,0 l/m 0,0 km/h (0 Bft) N -0,9 C 2,1 C
12.02.2011 05:00 2,2 C 1,9 C 81 % 80 % 1009 hPa 0,0 l/m 0,0 km/h (0 Bft) N -0,7 C 2,2 C
12.02.2011 06:00 2,3 C 2,0 C 82 % 81 % 1009 hPa 0,0 l/m 0,0 km/h (0 Bft) N -0,5 C 2,3 C
12.02.2011 07:00 1,8 C 1,4 C 81 % 80 % 1009 hPa 0,0 l/m 0,0 km/h (0 Bft) N -1,1 C 1,8 C
12.02.2011 08:00 1,1 C 0,8 C 80 % 80 % 1009 hPa 0,0 l/m 0,0 km/h (0 Bft) N -2,0 C 1,1 C
12.02.2011 09:00 2,3 C 2,2 C 83 % 82 % 1009 hPa 0,0 l/m 0,0 km/h (0 Bft) N -0,4 C 2,3 C
12.02.2011 10:00 4,5 C 4,2 C 83 % 84 % 1009 hPa 0,0 l/m 0,0 km/h (0 Bft) N 1,9 C 4,5 C
12.02.2011 11:00 6,9 C 6,7 C 79 % 83 % 1009 hPa 0,0 l/m 0,0 km/h (0 Bft) N 3,5 C 6,9 C
12.02.2011 12:00 9,4 C 12,8 C 38 % 52 % 1009 hPa 0,0 l/m 0,0 km/h (0 Bft) N -4,2 C 9,4 C
12.02.2011 13:00 14,6 C 18,0 C 23 % 25 % 1008 hPa 0,0 l/m 0,0 km/h (0 Bft) N -6,4 C 14,6 C
12.02.2011 14:00 13,1 C 14,1 C 24 % 31 % 1007 hPa 0,0 l/m 0,0 km/h (0 Bft) N -7,3 C 13,1 C
12.02.2011 15:00 14,4 C 15,5 C 23 % 29 % 1007 hPa 0,0 l/m 0,0 km/h (0 Bft) N -6,9 C 14,4 C
12.02.2011 16:00 12,1 C 11,9 C 28 % 39 % 1007 hPa 0,0 l/m 0,0 km/h (0 Bft) N -5,9 C 12,1 C
12.02.2011 17:00 10,6 C 10,4 C 33 % 45 % 1007 hPa 0,0 l/m 0,0 km/h (0 Bft) N -5,0 C 10,6 C
12.02.2011 18:00 9,8 C 9,6 C 37 % 48 % 1007 hPa 0,0 l/m 0,0 km/h (0 Bft) N -4,4 C 9,8 C
12.02.2011 19:00 8,8 C 8,5 C 40 % 51 % 1007 hPa 0,0 l/m 0,0 km/h (0 Bft) N -4,3 C 8,8 C
12.02.2011 20:00 8,4 C 8,3 C 44 % 55 % 1007 hPa 0,0 l/m 0,0 km/h (0 Bft) N -3,3 C 8,4 C
12.02.2011 21:00 8,9 C 8,7 C 47 % 59 % 1007 hPa 0,0 l/m 0,0 km/h (0 Bft) N -1,8 C 8,9 C
12.02.2011 22:00 8,2 C 8,3 C 52 % 61 % 1007 hPa 0,4 l/m 0,0 km/h (0 Bft) N -1,1 C 8,2 C
12.02.2011 23:00 6,2 C 6,1 C 55 % 66 % 1008 hPa 0,4 l/m 0,0 km/h (0 Bft) N -2,3 C 6,2 C
13.02.2011 00:00 5,6 C 5,5 C 59 % 69 % 1008 hPa 0,7 l/m 0,0 km/h (0 Bft) N -1,7 C 5,6 C
13.02.2011 01:00 4,8 C 4,7 C 63 % 71 % 1007 hPa 0,4 l/m 0,0 km/h (0 Bft) N -1,7 C 4,8 C
13.02.2011 02:00 4,4 C 4,3 C 67 % 73 % 1008 hPa 0,0 l/m 0,0 km/h (0 Bft) N -1,2 C 4,4 C
13.02.2011 03:00 3,5 C 3,5 C 67 % 73 % 1008 hPa 0,0 l/m 0,0 km/h (0 Bft) N -2,1 C 3,5 C
13.02.2011 04:00 2,8 C 2,3 C 70 % 75 % 1007 hPa 0,0 l/m 0,0 km/h (0 Bft) N -2,2 C 2,8 C
13.02.2011 05:00 3,1 C 2,8 C 74 % 77 % 1007 hPa 0,0 l/m 0,0 km/h (0 Bft) N -1,2 C 3,1 C
13.02.2011 06:00 3,5 C 3,3 C 77 % 78 % 1007 hPa 0,0 l/m 0,0 km/h (0 Bft) N -0,2 C 3,5 C
13.02.2011 07:00 3,7 C 3,5 C 78 % 79 % 1006 hPa 0,0 l/m 0,0 km/h (0 Bft) N 0,1 C 3,7 C
13.02.2011 08:00 3,8 C 3,6 C 78 % 80 % 1007 hPa 0,0 l/m 0,0 km/h (0 Bft) N 0,2 C 3,8 C
13.02.2011 09:00 4,8 C 4,8 C 79 % 80 % 1006 hPa 0,0 l/m 0,0 km/h (0 Bft) N 1,4 C 4,8 C
13.02.2011 10:00 5,3 C 5,1 C 76 % 79 % 1006 hPa 0,0 l/m 0,0 km/h (0 Bft) N 1,3 C 5,3 C
13.02.2011 11:00 6,4 C 6,3 C 66 % 79 % 1006 hPa 0,0 l/m 0,0 km/h (0 Bft) N 0,5 C 6,4 C
13.02.2011 12:00 8,7 C 9,9 C 38 % 50 % 1005 hPa 0,0 l/m 0,0 km/h (0 Bft) N -5,1 C 8,7 C
13.02.2011 13:00 11,8 C 14,4 C 20 % 24 % 1004 hPa 0,0 l/m 0,0 km/h (0 Bft) N -10,4 C 11,8 C
13.02.2011 14:00 10,1 C 10,8 C 22 % 32 % 1003 hPa 0,0 l/m 0,0 km/h (0 Bft) N -10,9 C 10,1 C
13.02.2011 15:00 9,3 C 9,5 C 24 % 37 % 1003 hPa 0,0 l/m 0,0 km/h (0 Bft) N -10,6 C 9,3 C
13.02.2011 16:00 8,3 C 8,3 C 26 % 39 % 1003 hPa 0,0 l/m 0,0 km/h (0 Bft) N -10,0 C 8,3 C
13.02.2011 17:00 7,3 C 7,2 C 31 % 44 % 1002 hPa 0,0 l/m 0,0 km/h (0 Bft) N -8,7 C 7,3 C
13.02.2011 18:00 6,3 C 5,8 C 36 % 49 % 1002 hPa 0,0 l/m 0,0 km/h (0 Bft) N -7,7 C 6,3 C
13.02.2011 19:00 5,4 C 5,1 C 40 % 53 % 1002 hPa 0,0 l/m 0,0 km/h (0 Bft) N -7,2 C 5,4 C
13.02.2011 20:00 3,7 C 3,3 C 45 % 60 % 1001 hPa 0,0 l/m 0,0 km/h (0 Bft) N -7,1 C 3,7 C
13.02.2011 21:00 3,3 C 2,9 C 49 % 64 % 1001 hPa 0,0 l/m 0,0 km/h (0 Bft) N -6,4 C 3,3 C
13.02.2011 22:00 3,3 C 3,0 C 53 % 66 % 1001 hPa 0,0 l/m 0,0 km/h (0 Bft) N -5,5 C 3,3 C
13.02.2011 23:00 2,7 C 2,3 C 55 % 67 % 1001 hPa 0,0 l/m 0,0 km/h (0 Bft) N -5,6 C 2,7 C
Min-Datum _ 09.02.11 07.02.11 07.02.11 07.02.11 13.02.11 - 07.02.11 - 07.02.11 09.02.11
_ Min-Zeit 08:39 22:09 12:39 12:39 20:09 - 00:09 - 21:39 08:39
Minimum _ -4,6 C -5,0 C 20 % 20 % 1001 hPa - 0,0 km/h (0 Bft) - -15,2 C -4,6 C
Max-Datum _ 07.02.11 07.02.11 12.02.11 07.02.11 07.02.11 08.02.11 07.02.11 - 11.02.11 07.02.11
_ Max-Zeit 14:39 14:09 09:39 22:09 00:09 03:39 18:39 - 02:09 14:39
Maximum _ 18,1 C 22,4 C 84 % 100 % 1020 hPa 1,1 l/m 0,8 km/h
N (0 Bft)
- 4,0 C 18,1 C
Durchschnitt _ 6,0 C 6,6 C 52 % 57 % 1012 hPa #7,2 l/m 0,0 km/h (0 Bft) N -4,3 C 6,0 C
©2001-2010 Bettendroffer Claude